CYHZ/YHZ METAR and TAF weather

Enter ICAO airport designator
Station Type Date Time Source
CYHZ METAR 2022/11/30 17:00 UTC NOAA

CYHZ 301700Z 15015KT 15SM BKN026 BKN120 03/M02 A3038 RMK SC6AC1 PRESFR SLP298


Station Type Date Time Source
CYHZ Decoded METAR 2022/11/30 17:00 UTC NOAA

Halifax International Airport , Canada (CYHZ) 44-53N 063-30W
Nov 30, 2022 - 12:00 PM EST / 2022.11.30 1700 UTC
Wind: from the SSE (150 degrees) at 17 MPH (15 KT):0
Visibility: 15 mile(s):0
Sky conditions: mostly cloudy
Temperature: 37 F (3 C)
Dew Point: 28 F (-2 C)
Relative Humidity: 69%
Pressure (altimeter): 30.38 in. Hg (1028 hPa)
Pressure tendency: falling rapidly
ob: CYHZ 301700Z 15015KT 15SM BKN026 BKN120 03/M02 A3038 RMK SC6AC1 PRESFR SLP298
cycle: 17

Station Type Date Time Source
CYHZ TAF 2022/11/30 18:42 UTC NOAA

TAF CYHZ 301740Z 3018/0118 15015G25KT P6SM BKN025
TEMPO 3018/3020 BKN020
FM302000 14018G28KT P6SM OVC020
TEMPO 3020/3024 5SM -SHRA BR BKN008 OVC020
FM010000 15022G32KT 4SM -RA BR BKN008 OVC020
TEMPO 0100/0105 P6SM -SHRA OVC020
FM010500 15025G35KT 2SM -RA BR SCT002 OVC004
TEMPO 0105/0108 4SM -RA BR OVC008
FM010800 18025G35KT 2SM -RA BR SCT002 OVC004
TEMPO 0108/0112 18032G42KT 1SM +RA BR OVC002
FM011200 20018G28KT 4SM -RA BR BKN004 OVC008
TEMPO 0112/0114 6SM -RA BR FEW004 OVC008
BECMG 0112/0114 28015G25KT
FM011400 28015G25KT 6SM -RA -DZ BR SCT008 OVC012
FM011600 28015KT P6SM -SHRA BKN020
RMK NXT FCST BY 302100Z

Example: see airport list